Time;durP1;ratioP1;P1;durP2;ratioP2;P2;SDS_P1;SDS_P2;PMS_P1;PMS_P2;Temp;Humidity;BMP_temperature;BMP_pressure;BME280_temperature;BME280_humidity;BME280_pressure;Samples;Min_cycle;Max_cycle;Signal;HPM_P1;HPM_P2
2022/11/15 00:00:38;;;;;;;11.93;9.00;;;;;;;11.16;55.53;100353.06;691066;28;831;-78
2022/11/15 00:01:18;;;;;;;10.45;9.00;;;;;;;11.17;55.61;100355.72;691956;28;1909;-78
2022/11/15 00:01:57;;;;;;;10.60;9.27;;;;;;;11.12;55.61;100361.72;690202;28;1799;-78
2022/11/15 00:02:36;;;;;;;10.82;9.68;;;;;;;11.10;56.16;100359.97;696399;28;881;-78
2022/11/15 00:03:24;;;;;;;11.35;9.73;;;;;;;11.08;55.83;100351.19;695575;28;1362;-78
2022/11/15 00:04:04;;;;;;;10.30;9.07;;;;;;;11.14;56.00;100360.91;696016;28;1209;-78
2022/11/15 00:04:44;;;;;;;9.95;8.90;;;;;;;11.14;55.93;100360.91;693488;28;2131;-78
2022/11/15 00:05:28;;;;;;;10.25;9.10;;;;;;;11.06;56.00;100360.75;693352;28;1235;-78
2022/11/15 00:06:08;;;;;;;10.95;9.48;;;;;;;11.08;56.15;100363.41;690141;28;1483;-79
2022/11/15 00:06:47;;;;;;;11.48;9.40;;;;;;;11.12;56.15;100372.16;693193;28;1842;-78
2022/11/15 00:07:26;;;;;;;12.70;9.73;;;;;;;11.06;56.17;100363.34;690813;28;1290;-78
2022/11/15 00:08:05;;;;;;;12.18;9.80;;;;;;;11.05;56.16;100355.50;696098;28;1248;-78
2022/11/15 00:08:44;;;;;;;10.75;9.63;;;;;;;11.10;56.28;100359.06;696365;28;1109;-78
2022/11/15 00:09:23;;;;;;;10.38;9.23;;;;;;;11.04;56.43;100346.78;692878;28;1275;-79
2022/11/15 00:10:03;;;;;;;10.50;9.40;;;;;;;11.09;56.27;100362.53;695511;28;1918;-78
2022/11/15 00:10:43;;;;;;;11.00;9.30;;;;;;;11.13;56.42;100366.09;693692;28;848;-77
2022/11/15 00:11:22;;;;;;;10.40;9.30;;;;;;;11.17;56.24;100371.41;695634;28;1292;-78
2022/11/15 00:12:01;;;;;;;10.23;9.20;;;;;;;11.11;56.39;100355.59;691858;28;1887;-76
2022/11/15 00:12:40;;;;;;;9.93;8.93;;;;;;;11.11;56.38;100366.06;693477;28;979;-76
2022/11/15 00:13:19;;;;;;;11.85;9.80;;;;;;;11.17;56.44;100366.19;695782;28;1252;-78
2022/11/15 00:13:58;;;;;;;12.65;9.40;;;;;;;11.08;56.49;100351.19;692995;28;1527;-76
2022/11/15 00:14:37;;;;;;;11.18;9.05;;;;;;;11.17;56.36;100365.31;687615;28;851;-78
2022/11/15 00:15:16;;;;;;;11.73;9.60;;;;;;;11.23;56.29;100374.13;689314;28;1272;-78
2022/11/15 00:16:00;;;;;;;12.45;10.02;;;;;;;11.18;56.50;100356.63;685228;28;1075;-78
2022/11/15 00:16:39;;;;;;;10.70;9.20;;;;;;;11.18;56.44;100361.84;688142;28;1075;-78
2022/11/15 00:17:18;;;;;;;10.68;9.32;;;;;;;11.22;56.50;100364.53;690055;28;1127;-76
2022/11/15 00:17:57;;;;;;;11.75;9.60;;;;;;;11.18;56.37;100352.25;693600;28;990;-76
2022/11/15 00:18:38;;;;;;;11.95;9.70;;;;;;;11.28;56.49;100363.78;692851;28;1819;-77
2022/11/15 00:19:16;;;;;;;11.68;9.63;;;;;;;11.22;56.11;100348.88;697864;28;1331;-78
2022/11/15 00:19:56;;;;;;;11.80;9.13;;;;;;;11.23;56.38;100339.28;697123;28;996;-77
2022/11/15 00:20:35;;;;;;;11.65;9.25;;;;;;;11.21;56.63;100348.84;694783;28;1748;-76
2022/11/15 00:21:15;;;;;;;10.95;9.15;;;;;;;11.24;56.58;100352.38;693479;28;1209;-76
2022/11/15 00:21:54;;;;;;;10.25;8.88;;;;;;;11.22;56.62;100347.97;692483;28;1448;-77
2022/11/15 00:22:33;;;;;;;10.20;8.70;;;;;;;11.29;56.40;100355.06;690907;28;878;-76
2022/11/15 00:23:12;;;;;;;10.85;8.90;;;;;;;11.27;56.64;100355.91;690673;28;1176;-76
2022/11/15 00:23:52;;;;;;;10.30;8.85;;;;;;;11.29;56.72;100354.22;692370;28;1630;-78
2022/11/15 00:24:31;;;;;;;13.18;9.60;;;;;;;11.32;56.74;100356.88;688116;28;1171;-78
2022/11/15 00:25:10;;;;;;;12.25;9.65;;;;;;;11.29;56.70;100354.22;692962;28;1138;-79
2022/11/15 00:25:57;;;;;;;10.50;9.32;;;;;;;11.33;56.81;100367.34;688136;28;1072;-77
2022/11/15 00:26:36;;;;;;;12.05;9.48;;;;;;;11.29;56.89;100352.47;687785;28;979;-77
2022/11/15 00:27:15;;;;;;;9.95;8.90;;;;;;;11.29;57.02;100343.75;690167;28;1230;-76
2022/11/15 00:27:58;;;;;;;10.23;9.00;;;;;;;11.35;56.76;100364.75;693101;28;1055;-78
2022/11/15 00:28:38;;;;;;;12.20;9.55;;;;;;;11.30;56.86;100356.84;694549;28;886;-76
2022/11/15 00:29:17;;;;;;;12.75;10.07;;;;;;;11.30;56.80;100348.13;695449;28;1185;-76
2022/11/15 00:29:56;;;;;;;11.25;9.98;;;;;;;11.30;56.96;100346.38;693445;28;1096;-76
2022/11/15 00:30:35;;;;;;;12.02;9.75;;;;;;;11.31;56.77;100355.13;690984;28;1087;-76
2022/11/15 00:31:14;;;;;;;11.02;9.43;;;;;;;11.33;56.88;100358.63;693570;28;1181;-77
2022/11/15 00:31:54;;;;;;;13.10;9.23;;;;;;;11.30;56.83;100345.53;690129;28;2032;-76
2022/11/15 00:32:33;;;;;;;12.88;9.73;;;;;;;11.32;57.17;100343.81;693248;28;890;-76
2022/11/15 00:33:12;;;;;;;12.10;9.98;;;;;;;11.22;56.97;100330.59;696281;28;1161;-77
2022/11/15 00:33:51;;;;;;;11.60;9.00;;;;;;;11.32;57.18;100346.44;694680;28;1110;-76
2022/11/15 00:34:30;;;;;;;13.18;9.52;;;;;;;11.21;57.04;100344.50;688389;28;838;-77
2022/11/15 00:35:09;;;;;;;12.40;9.98;;;;;;;11.22;57.39;100354.09;688868;28;1083;-77
2022/11/15 00:35:48;;;;;;;11.60;9.75;;;;;;;11.20;57.22;100344.47;695255;28;1584;-76
2022/11/15 00:36:27;;;;;;;11.70;9.52;;;;;;;11.20;57.32;100352.31;696595;28;942;-77
2022/11/15 00:37:06;;;;;;;12.80;9.52;;;;;;;11.13;57.56;100343.47;694190;28;1173;-78
2022/11/15 00:37:47;;;;;;;11.73;9.75;;;;;;;11.11;57.54;100345.16;696432;28;1959;-78
2022/11/15 00:38:31;;;;;;;10.68;9.40;;;;;;;11.03;57.60;100337.19;695703;28;1642;-78
2022/11/15 00:39:10;;;;;;;13.02;9.82;;;;;;;11.05;58.07;100345.06;693599;28;1264;-78
2022/11/15 00:39:49;;;;;;;13.68;10.57;;;;;;;11.05;58.03;100345.06;690848;28;1348;-78
2022/11/15 00:40:29;;;;;;;12.23;10.10;;;;;;;10.96;57.93;100341.41;692593;28;1535;-79
2022/11/15 00:41:09;;;;;;;10.98;9.20;;;;;;;10.97;58.07;100342.28;696556;28;1278;-78
2022/11/15 00:41:47;;;;;;;10.65;8.70;;;;;;;10.95;58.37;100344.00;698707;28;1059;-77
2022/11/15 00:42:26;;;;;;;10.90;8.98;;;;;;;10.87;58.47;100333.41;699035;28;862;-78
2022/11/15 00:43:05;;;;;;;11.27;9.27;;;;;;;10.89;58.75;100344.78;696437;28;1220;-78
2022/11/15 00:43:44;;;;;;;10.38;9.25;;;;;;;10.86;58.88;100339.47;689927;28;2025;-79
2022/11/15 00:44:24;;;;;;;10.75;9.50;;;;;;;10.95;58.57;100350.09;688570;28;812;-78
2022/11/15 00:45:03;;;;;;;11.98;9.68;;;;;;;10.97;58.70;100347.50;688538;28;1133;-78
2022/11/15 00:45:42;;;;;;;10.30;9.20;;;;;;;10.91;58.61;100347.38;690777;28;1970;-79
2022/11/15 00:46:22;;;;;;;10.63;8.90;;;;;;;10.89;58.78;100334.31;691639;28;1086;-78
2022/11/15 00:47:01;;;;;;;12.27;8.93;;;;;;;10.92;58.72;100344.81;694127;28;1124;-78
2022/11/15 00:47:40;;;;;;;13.02;9.70;;;;;;;10.88;58.81;100340.38;693831;28;1454;-78
2022/11/15 00:48:19;;;;;;;10.93;9.02;;;;;;;10.92;58.79;100350.03;694893;28;1746;-78
2022/11/15 00:48:58;;;;;;;10.90;9.60;;;;;;;10.85;59.04;100339.44;691574;28;1379;-78
2022/11/15 00:49:37;;;;;;;10.02;8.80;;;;;;;10.85;58.95;100345.53;689941;28;1637;-78
2022/11/15 00:50:17;;;;;;;11.60;9.40;;;;;;;10.89;58.92;100352.59;695583;28;1899;-77
2022/11/15 00:50:57;;;;;;;12.10;9.77;;;;;;;10.91;59.22;100337.84;689723;28;1986;-78
2022/11/15 00:51:36;;;;;;;11.70;9.40;;;;;;;10.95;58.95;100339.66;688499;28;846;-78
2022/11/15 00:52:15;;;;;;;12.60;9.75;;;;;;;10.99;58.72;100337.09;689660;28;1432;-78
2022/11/15 00:52:54;;;;;;;13.35;9.55;;;;;;;11.08;58.88;100345.13;693461;28;1661;-78
2022/11/15 00:53:34;;;;;;;11.43;9.27;;;;;;;11.05;58.74;100334.63;691420;28;843;-78
2022/11/15 00:54:13;;;;;;;10.02;8.90;;;;;;;11.10;58.78;100344.31;693506;28;1358;-77
2022/11/15 00:54:53;;;;;;;10.80;8.88;;;;;;;11.08;58.76;100340.75;689647;28;1638;-77
2022/11/15 00:55:32;;;;;;;10.63;8.55;;;;;;;11.13;58.78;100335.66;694228;28;1256;-78
2022/11/15 00:56:11;;;;;;;10.30;8.82;;;;;;;11.17;58.75;100334.84;693467;28;1129;-78
2022/11/15 00:56:50;;;;;;;11.02;8.93;;;;;;;11.17;58.69;100333.97;693769;28;1534;-78
2022/11/15 00:57:29;;;;;;;10.70;9.32;;;;;;;11.20;58.65;100334.88;694025;28;807;-78
2022/11/15 00:58:08;;;;;;;11.77;9.60;;;;;;;11.27;58.44;100342.84;690620;28;1870;-78
2022/11/15 00:58:48;;;;;;;12.48;9.38;;;;;;;11.24;58.30;100335.81;690470;28;1052;-77
2022/11/15 00:59:27;;;;;;;11.00;9.50;;;;;;;11.26;58.57;100334.13;692649;28;917;-76
2022/11/15 01:00:07;;;;;;;11.25;10.05;;;;;;;11.27;58.28;100340.22;690781;28;1019;-77
2022/11/15 01:00:46;;;;;;;10.52;9.43;;;;;;;11.27;58.68;100329.78;693235;28;1734;-78
2022/11/15 01:01:25;;;;;;;10.30;9.20;;;;;;;11.24;58.57;100330.59;693532;28;881;-78
2022/11/15 01:02:04;;;;;;;10.38;9.00;;;;;;;11.26;58.57;100330.63;690085;28;1029;-78
2022/11/15 01:02:43;;;;;;;9.60;8.60;;;;;;;11.37;58.49;100342.16;694739;28;1672;-78
2022/11/15 01:03:22;;;;;;;9.75;8.75;;;;;;;11.33;58.48;100336.00;693785;28;1332;-76
2022/11/15 01:04:02;;;;;;;10.88;9.43;;;;;;;11.35;58.61;100338.63;695493;28;1678;-78
2022/11/15 01:04:41;;;;;;;9.65;8.57;;;;;;;11.39;58.12;100340.47;694235;28;1677;-76
2022/11/15 01:05:20;;;;;;;9.40;8.40;;;;;;;11.43;58.38;100337.03;695728;28;1185;-76
2022/11/15 01:06:00;;;;;;;11.82;9.40;;;;;;;11.35;58.66;100328.19;690030;28;1809;-76
2022/11/15 01:06:39;;;;;;;11.77;9.40;;;;;;;11.41;58.72;100330.03;690559;28;819;-76
2022/11/15 01:07:19;;;;;;;11.85;9.63;;;;;;;11.40;58.44;100337.00;693016;28;1209;-76
2022/11/15 01:07:58;;;;;;;11.57;9.75;;;;;;;11.41;58.66;100327.44;692937;28;2009;-76
2022/11/15 01:08:41;;;;;;;11.38;9.07;;;;;;;11.42;58.49;100330.03;687847;28;940;-77
2022/11/15 01:09:20;;;;;;;10.25;9.00;;;;;;;11.40;58.58;100323.94;692400;28;1448;-76
2022/11/15 01:09:59;;;;;;;9.95;8.88;;;;;;;11.37;58.51;100316.03;690812;28;1071;-76
2022/11/15 01:10:38;;;;;;;9.98;8.90;;;;;;;11.42;58.64;100323.97;693836;28;795;-76
2022/11/15 01:11:17;;;;;;;10.10;8.98;;;;;;;11.39;58.51;100314.34;698333;28;1256;-77
2022/11/15 01:11:56;;;;;;;10.07;8.90;;;;;;;11.47;58.70;100331.03;696105;28;1387;-76
2022/11/15 01:12:35;;;;;;;10.15;9.05;;;;;;;11.45;58.61;100318.78;693533;28;850;-77
2022/11/15 01:13:14;;;;;;;9.90;8.90;;;;;;;11.44;58.65;100312.66;696544;28;1264;-76
2022/11/15 01:13:54;;;;;;;11.00;9.20;;;;;;;11.55;58.67;100325.03;693870;28;1596;-76
2022/11/15 01:14:33;;;;;;;11.85;9.18;;;;;;;11.56;58.54;100332.88;687565;28;1147;-76
2022/11/15 01:15:12;;;;;;;11.00;9.38;;;;;;;11.46;58.86;100316.19;685775;28;1689;-76
2022/11/15 01:15:51;;;;;;;12.75;9.50;;;;;;;11.51;58.63;100322.34;682690;28;1451;-77
2022/11/15 01:16:32;;;;;;;10.02;9.02;;;;;;;11.51;58.71;100319.75;684810;28;1101;-76
2022/11/15 01:17:11;;;;;;;10.73;8.63;;;;;;;11.51;58.70;100318.88;689132;28;1095;-76
2022/11/15 01:17:50;;;;;;;12.88;10.07;;;;;;;11.51;58.79;100319.75;690330;28;1021;-76
2022/11/15 01:18:30;;;;;;;11.48;9.70;;;;;;;11.49;59.08;100318.84;688538;28;1491;-76
2022/11/15 01:19:09;;;;;;;10.63;9.05;;;;;;;11.55;58.77;100322.44;688069;28;1233;-76
2022/11/15 01:19:48;;;;;;;9.85;8.75;;;;;;;11.59;58.95;100326.84;690002;28;1514;-76
2022/11/15 01:20:27;;;;;;;11.25;9.20;;;;;;;11.60;58.93;100328.59;688811;28;827;-76
2022/11/15 01:21:09;;;;;;;10.23;9.10;;;;;;;11.56;58.46;100319.81;691256;28;1201;-76
2022/11/15 01:21:51;;;;;;;9.70;8.70;;;;;;;11.61;58.71;100317.31;695972;28;1109;-76
2022/11/15 01:22:30;;;;;;;9.52;8.32;;;;;;;11.63;58.91;100315.59;696306;28;1765;-76
2022/11/15 01:23:10;;;;;;;10.40;8.57;;;;;;;11.71;58.69;100327.09;694279;28;2003;-76
2022/11/15 01:23:53;;;;;;;12.32;8.95;;;;;;;11.63;58.94;100318.22;693413;28;1156;-76
2022/11/15 01:24:32;;;;;;;17.98;8.80;;;;;;;11.61;58.75;100314.69;687914;28;887;-76
2022/11/15 01:25:11;;;;;;;18.10;8.90;;;;;;;11.60;58.87;100312.91;687462;28;1254;-76
2022/11/15 01:25:52;;;;;;;10.20;8.63;;;;;;;11.61;58.95;100314.69;685289;28;1200;-76
2022/11/15 01:26:31;;;;;;;10.00;8.30;;;;;;;11.65;58.62;100316.53;690353;28;924;-76
2022/11/15 01:27:10;;;;;;;9.50;8.50;;;;;;;11.67;58.69;100330.50;695301;28;982;-76
2022/11/15 01:27:49;;;;;;;9.95;8.80;;;;;;;11.61;58.61;100309.47;693708;28;1541;-76
2022/11/15 01:28:33;;;;;;;10.85;8.90;;;;;;;11.68;59.00;100320.94;694852;28;831;-77
2022/11/15 01:29:12;;;;;;;9.77;8.77;;;;;;;11.71;58.89;100313.13;691887;28;1400;-76
2022/11/15 01:29:52;;;;;;;9.60;8.40;;;;;;;11.64;59.09;100319.97;689305;28;1592;-76
2022/11/15 01:30:31;;;;;;;9.57;8.20;;;;;;;11.62;59.00;100313.84;690848;28;862;-76
2022/11/15 01:31:20;;;;;;;10.57;9.20;;;;;;;11.59;59.09;100311.16;691878;28;1034;-76
2022/11/15 01:31:59;;;;;;;11.30;9.27;;;;;;;11.58;59.06;100310.28;692434;28;1655;-76
2022/11/15 01:32:39;;;;;;;9.63;8.35;;;;;;;11.58;59.44;100312.03;690873;28;847;-76
2022/11/15 01:33:18;;;;;;;9.43;8.20;;;;;;;11.54;59.57;100312.84;692835;28;1409;-77
2022/11/15 01:33:57;;;;;;;9.52;8.38;;;;;;;11.57;59.47;100310.25;690337;28;1492;-76
2022/11/15 01:34:36;;;;;;;10.95;8.90;;;;;;;11.60;59.24;100312.91;690140;28;2255;-76
2022/11/15 01:35:15;;;;;;;10.23;9.00;;;;;;;11.54;59.43;100312.84;688761;28;1245;-77
2022/11/15 01:35:54;;;;;;;10.27;8.70;;;;;;;11.57;59.44;100318.09;690057;28;1158;-76
2022/11/15 01:36:34;;;;;;;11.07;8.95;;;;;;;11.52;59.54;100303.25;690836;28;831;-76
2022/11/15 01:37:13;;;;;;;10.63;8.85;;;;;;;11.51;59.54;100304.06;688615;28;1143;-76
2022/11/15 01:37:52;;;;;;;11.15;8.82;;;;;;;11.55;59.60;100310.22;692930;28;1454;-76
2022/11/15 01:38:31;;;;;;;12.02;9.50;;;;;;;11.56;59.73;100305.91;693377;28;1229;-76
2022/11/15 01:39:10;;;;;;;11.95;9.38;;;;;;;11.49;59.63;100305.78;694239;28;1220;-76
2022/11/15 01:39:49;;;;;;;11.43;9.38;;;;;;;11.59;59.58;100316.38;695608;28;1071;-76
2022/11/15 01:40:28;;;;;;;11.15;9.60;;;;;;;11.59;59.52;100311.16;696283;28;811;-76
2022/11/15 01:41:19;;;;;;;10.48;9.13;;;;;;;11.65;59.65;100320.03;694418;28;1450;-76
2022/11/15 01:41:59;;;;;;;11.65;9.25;;;;;;;11.57;59.63;100310.25;692347;28;1442;-76
2022/11/15 01:42:38;;;;;;;11.30;9.20;;;;;;;11.60;59.74;100302.47;688551;28;1926;-76
2022/11/15 01:43:26;;;;;;;11.48;9.65;;;;;;;11.64;59.89;100317.34;689848;28;1198;-76
2022/11/15 01:44:33;;;;;;;11.32;9.35;;;;;;;11.70;59.64;100317.50;690494;28;1597;-77
2022/11/15 01:45:14;;;;;;;10.55;9.45;;;;;;;11.69;59.55;100312.22;692366;28;1312;-76
2022/11/15 01:46:02;;;;;;;12.80;9.50;;;;;;;11.69;59.62;100314.84;689558;28;1539;-76
2022/11/15 01:46:44;;;;;;;11.40;8.77;;;;;;;11.71;59.62;100314.03;690773;28;857;-76
2022/11/15 01:47:27;;;;;;;11.55;8.82;;;;;;;11.66;59.79;100310.44;691607;28;846;-76
2022/11/15 01:48:10;;;;;;;9.70;8.70;;;;;;;11.63;59.84;100298.16;698848;28;1042;-76
2022/11/15 01:48:52;;;;;;;12.40;9.10;;;;;;;11.68;59.71;100306.09;690666;28;1756;-76
2022/11/15 01:49:34;;;;;;;14.10;8.93;;;;;;;11.70;59.89;100312.25;687317;28;997;-76
2022/11/15 01:50:30;;;;;;;11.52;9.07;;;;;;;11.72;59.80;100313.16;689863;28;1922;-76
2022/11/15 01:51:12;;;;;;;11.63;9.20;;;;;;;11.74;59.87;100310.59;695886;28;1303;-77
2022/11/15 01:51:53;;;;;;;11.52;9.10;;;;;;;11.76;59.88;100304.53;696012;28;1111;-76
2022/11/15 01:52:35;;;;;;;12.02;9.20;;;;;;;11.71;59.88;100300.06;690331;28;1195;-76
2022/11/15 01:53:15;;;;;;;11.70;8.68;;;;;;;11.69;59.84;100297.44;693309;28;1229;-76
2022/11/15 01:54:00;;;;;;;10.40;8.73;;;;;;;11.72;60.02;100297.47;694039;28;1288;-77
2022/11/15 01:54:40;;;;;;;11.10;8.95;;;;;;;11.77;60.22;100301.06;693496;28;1031;-76
2022/11/15 01:55:24;;;;;;;10.30;8.77;;;;;;;11.74;60.09;100294.91;694986;28;1890;-76
2022/11/15 01:56:08;;;;;;;12.13;9.13;;;;;;;11.76;60.11;100296.69;692170;28;1921;-76
2022/11/15 01:56:55;;;;;;;10.93;8.70;;;;;;;11.81;60.56;100295.84;690418;28;1261;-77
2022/11/15 01:57:34;;;;;;;11.30;8.90;;;;;;;11.87;60.68;100298.56;690621;28;819;-76
2022/11/15 01:58:14;;;;;;;12.40;8.95;;;;;;;11.91;60.84;100295.13;694640;28;1264;-76
2022/11/15 01:58:56;;;;;;;11.38;8.85;;;;;;;11.98;60.92;100302.22;694778;28;1432;-77
2022/11/15 01:59:42;;;;;;;9.70;8.60;;;;;;;11.93;60.69;100283.84;695682;28;858;-76
2022/11/15 02:00:21;;;;;;;10.70;8.20;;;;;;;12.05;61.05;100298.84;693151;28;1052;-76
2022/11/15 02:01:00;;;;;;;11.45;8.75;;;;;;;12.06;60.92;100297.97;693172;28;1558;-76
2022/11/15 02:01:40;;;;;;;10.68;8.57;;;;;;;12.01;61.32;100288.31;692908;28;1666;-76
2022/11/15 02:02:19;;;;;;;10.98;9.10;;;;;;;12.00;60.87;100290.06;695407;28;1338;-76
2022/11/15 02:02:58;;;;;;;10.00;8.77;;;;;;;12.07;60.74;100299.72;689006;28;1932;-76
2022/11/15 02:03:58;;;;;;;10.07;8.23;;;;;;;12.03;60.89;100281.34;690659;28;942;-76
2022/11/15 02:04:44;;;;;;;9.52;7.78;;;;;;;12.03;60.70;100284.88;689994;28;1328;-76
2022/11/15 02:05:23;;;;;;;9.15;7.50;;;;;;;12.07;60.67;100289.25;693308;28;862;-77
2022/11/15 02:06:05;;;;;;;9.35;7.95;;;;;;;12.09;60.96;100284.06;692587;28;1897;-76
2022/11/15 02:06:45;;;;;;;11.52;8.77;;;;;;;12.13;61.35;100280.66;688117;28;1203;-76
2022/11/15 02:07:25;;;;;;;11.80;8.50;;;;;;;12.22;61.41;100286.84;687785;28;804;-76
2022/11/15 02:08:05;;;;;;;9.73;7.95;;;;;;;12.19;61.27;100287.69;687095;28;1254;-76
2022/11/15 02:08:44;;;;;;;10.80;8.60;;;;;;;12.20;61.45;100290.34;693348;28;783;-77
2022/11/15 02:09:23;;;;;;;10.07;8.68;;;;;;;12.27;61.75;100301.75;693298;28;894;-76
2022/11/15 02:10:15;;;;;;;9.45;8.45;;;;;;;12.23;61.63;100288.63;694294;28;1949;-76
2022/11/15 02:10:55;;;;;;;10.20;8.20;;;;;;;12.20;61.63;100281.59;693904;28;1620;-76
2022/11/15 02:11:34;;;;;;;10.90;8.30;;;;;;;12.28;61.99;100287.81;692274;28;894;-77
2022/11/15 02:12:18;;;;;;;8.95;7.80;;;;;;;12.26;62.25;100280.78;692304;28;1176;-76
2022/11/15 02:13:00;;;;;;;9.88;8.32;;;;;;;12.44;62.24;100303.72;690511;28;1979;-76
2022/11/15 02:13:40;;;;;;;9.70;8.63;;;;;;;12.51;62.36;100297.69;692778;28;839;-76
2022/11/15 02:14:20;;;;;;;9.80;8.60;;;;;;;12.57;62.22;100300.41;695395;28;1134;-76
2022/11/15 02:15:01;;;;;;;9.30;7.93;;;;;;;12.54;62.62;100292.47;693000;28;1288;-76
2022/11/15 02:15:53;;;;;;;8.85;7.95;;;;;;;12.53;62.46;100280.25;694356;28;818;-76
2022/11/15 02:16:34;;;;;;;11.45;8.13;;;;;;;12.59;62.49;100303.91;693290;28;969;-76
2022/11/15 02:17:48;;;;;;;11.50;7.97;;;;;;;12.59;62.99;100293.44;691788;28;1189;-76
2022/11/15 02:18:34;;;;;;;9.65;7.70;;;;;;;12.65;63.09;100294.38;693243;28;1649;-76
2022/11/15 02:19:31;;;;;;;9.45;7.72;;;;;;;12.79;63.04;100292.75;694731;28;1103;-76
2022/11/15 02:20:35;;;;;;;9.13;7.75;;;;;;;12.89;63.17;100294.66;694231;28;1022;-77
2022/11/15 02:21:14;;;;;;;11.90;7.72;;;;;;;12.96;62.84;100286.91;689298;28;1384;-76
2022/11/15 02:22:21;;;;;;;14.80;8.02;;;;;;;13.07;62.84;100287.88;687499;28;1231;-76
2022/11/15 02:23:37;;;;;;;10.52;8.27;;;;;;;13.16;63.26;100285.34;692469;28;1541;-76
2022/11/15 02:24:31;;;;;;;10.65;7.95;;;;;;;13.32;62.84;100282.84;694791;28;1166;-76
2022/11/15 02:25:19;;;;;;;9.27;8.25;;;;;;;13.36;62.79;100275.91;693004;28;2159;-76
2022/11/15 02:26:26;;;;;;;9.80;8.10;;;;;;;13.32;62.55;100268.88;687009;28;1687;-76
2022/11/15 02:27:24;;;;;;;11.02;8.20;;;;;;;13.45;62.53;100267.25;691412;28;1987;-76
2022/11/15 02:28:22;;;;;;;8.20;7.30;;;;;;;13.49;62.60;100267.28;692782;28;1901;-76
2022/11/15 02:29:03;;;;;;;11.70;7.75;;;;;;;13.47;62.41;100257.66;689768;28;1617;-76
2022/11/15 02:30:04;;;;;;;10.15;8.00;;;;;;;13.56;62.49;100273.44;687112;28;800;-76
2022/11/15 02:31:18;;;;;;;10.07;8.10;;;;;;;13.53;62.59;100273.41;693425;28;1297;-77
2022/11/15 02:32:06;;;;;;;9.75;7.93;;;;;;;13.57;62.47;100272.56;691703;28;1543;-77
2022/11/15 02:32:54;;;;;;;9.38;7.75;;;;;;;13.51;62.36;100259.44;690487;28;1096;-77
2022/11/15 02:33:46;;;;;;;9.38;7.32;;;;;;;13.63;62.28;100279.63;693104;28;1264;-76
2022/11/15 02:34:33;;;;;;;9.95;7.85;;;;;;;13.54;62.29;100265.56;695500;28;863;-76
2022/11/15 02:35:25;;;;;;;10.30;8.20;;;;;;;13.63;62.20;100269.13;694599;28;1013;-76
2022/11/15 02:36:18;;;;;;;10.60;7.60;;;;;;;13.69;62.08;100280.53;695465;28;1221;-76
2022/11/15 02:37:06;;;;;;;12.32;7.88;;;;;;;13.73;62.20;100284.06;696972;28;1946;-77
2022/11/15 02:37:54;;;;;;;10.25;7.72;;;;;;;13.71;61.96;100276.16;690432;28;1150;-76
2022/11/15 02:38:57;;;;;;;9.13;7.57;;;;;;;13.83;62.25;100287.63;692308;28;1435;-77
2022/11/15 02:39:47;;;;;;;10.23;8.00;;;;;;;13.89;61.88;100282.41;694136;28;792;-76
2022/11/15 02:40:31;;;;;;;8.25;7.03;;;;;;;13.89;61.76;100277.16;693258;28;862;-77
2022/11/15 02:41:21;;;;;;;10.02;7.40;;;;;;;13.81;61.77;100264.00;690889;28;1637;-76
2022/11/15 02:43:56;;;;;;;10.73;8.20;;;;;;;13.89;61.54;100266.66;691531;28;1736;-76
2022/11/15 02:44:17;;;;;;;11.52;8.20;;;;;;;13.92;61.75;100258.84;694129;28;1414;-77
2022/11/15 02:45:01;;;;;;;10.90;7.80;;;;;;;13.97;61.68;100264.97;692829;28;1537;-77
2022/11/15 02:45:47;;;;;;;10.60;7.65;;;;;;;13.93;61.25;100255.34;690371;28;854;-77
2022/11/15 02:47:43;;;;;;;8.68;7.35;;;;;;;14.08;61.22;100264.16;693132;28;821;-77
2022/11/15 02:48:25;;;;;;;8.13;7.10;;;;;;;14.07;61.09;100262.41;692766;28;1288;-76
2022/11/15 02:49:04;;;;;;;12.48;8.00;;;;;;;14.12;60.90;100258.09;690394;28;1272;-77
2022/11/15 02:50:00;;;;;;;11.13;8.40;;;;;;;14.13;60.83;100257.22;688585;28;1094;-74
2022/11/15 02:50:40;;;;;;;8.95;7.40;;;;;;;14.20;61.01;100266.88;692288;28;1047;-75
2022/11/15 02:51:20;;;;;;;9.75;7.30;;;;;;;14.24;60.79;100263.41;693750;28;1143;-74
2022/11/15 02:52:00;;;;;;;8.48;7.38;;;;;;;14.18;60.87;100258.13;694556;28;1411;-74
2022/11/15 02:52:38;;;;;;;9.27;7.55;;;;;;;14.25;60.72;100259.91;690381;28;929;-75
2022/11/15 02:53:18;;;;;;;9.00;7.72;;;;;;;14.30;60.47;100256.41;690113;28;1562;-74
2022/11/15 02:53:56;;;;;;;10.18;7.95;;;;;;;14.41;60.41;100266.97;689947;28;2005;-74
2022/11/15 02:54:36;;;;;;;9.52;7.60;;;;;;;14.34;60.32;100251.22;688449;28;1524;-75
2022/11/15 02:55:27;;;;;;;8.65;7.10;;;;;;;14.45;60.39;100271.38;689350;28;1136;-75
2022/11/15 02:56:09;;;;;;;8.60;7.13;;;;;;;14.39;60.18;100253.84;689135;28;1779;-75
2022/11/15 02:56:51;;;;;;;9.57;7.57;;;;;;;14.45;59.76;100259.09;690378;28;1183;-75
2022/11/15 02:57:52;;;;;;;9.40;7.60;;;;;;;14.51;60.05;100268.75;690056;28;1360;-75
2022/11/15 02:58:56;;;;;;;7.65;6.85;;;;;;;14.49;59.87;100263.50;693484;28;898;-75
2022/11/15 02:59:49;;;;;;;9.43;7.95;;;;;;;14.52;59.89;100266.13;695253;28;1631;-75
2022/11/15 03:00:36;;;;;;;8.95;7.93;;;;;;;14.45;59.71;100261.72;693170;28;799;-75
2022/11/15 03:01:14;;;;;;;8.90;7.40;;;;;;;14.56;59.92;100280.13;693400;28;1726;-75
2022/11/15 03:02:31;;;;;;;8.80;7.32;;;;;;;14.57;59.71;100281.88;694321;28;1643;-75
2022/11/15 03:03:33;;;;;;;10.10;7.38;;;;;;;14.60;59.78;100271.41;690132;28;1174;-75
2022/11/15 03:04:28;;;;;;;9.52;7.70;;;;;;;14.49;59.53;100262.59;686102;28;1254;-75
2022/11/15 03:05:41;;;;;;;8.43;7.28;;;;;;;14.56;59.79;100258.28;690009;28;1130;-76
2022/11/15 03:07:00;;;;;;;8.38;7.20;;;;;;;14.60;59.63;100262.66;694546;28;1414;-75
2022/11/15 03:07:43;;;;;;;8.85;7.40;;;;;;;14.62;59.62;100279.31;695308;28;803;-75
2022/11/15 03:08:32;;;;;;;9.02;7.28;;;;;;;14.64;59.66;100277.56;693462;28;1271;-75
2022/11/15 03:09:11;;;;;;;8.63;7.30;;;;;;;14.64;59.56;100272.31;690150;28;1550;-75
2022/11/15 03:10:06;;;;;;;8.70;7.10;;;;;;;14.57;59.60;100263.50;686153;28;1444;-75
2022/11/15 03:11:24;;;;;;;9.40;7.20;;;;;;;14.63;59.50;100273.19;690907;28;1116;-74
2022/11/15 03:12:14;;;;;;;9.80;6.90;;;;;;;14.61;59.45;100261.78;693840;28;1146;-75
2022/11/15 03:13:02;;;;;;;9.20;7.30;;;;;;;14.66;59.52;100275.81;697904;28;1879;-75
2022/11/15 03:13:59;;;;;;;10.13;7.38;;;;;;;14.62;59.42;100258.31;693691;28;947;-74
2022/11/15 03:14:59;;;;;;;9.05;7.50;;;;;;;14.66;59.52;100263.56;696890;28;885;-75
2022/11/15 03:15:50;;;;;;;8.65;7.70;;;;;;;14.76;59.24;100259.19;696699;28;837;-75
2022/11/15 03:16:54;;;;;;;10.02;7.70;;;;;;;14.75;59.28;100270.56;696464;28;1151;-75
2022/11/15 03:17:43;;;;;;;8.88;7.07;;;;;;;14.68;59.12;100260.91;693583;28;903;-75
2022/11/15 03:18:33;;;;;;;9.15;7.40;;;;;;;14.62;59.43;100253.91;695781;28;1374;-75
2022/11/15 03:19:37;;;;;;;9.15;6.90;;;;;;;14.62;59.32;100264.41;690574;28;1747;-75
2022/11/15 03:20:18;;;;;;;8.88;7.30;;;;;;;14.59;59.08;100253.03;693525;28;1182;-74
2022/11/15 03:21:05;;;;;;;11.13;7.40;;;;;;;14.61;59.44;100261.78;693518;28;984;-75
2022/11/15 03:21:47;;;;;;;9.73;7.25;;;;;;;14.57;59.41;100260.03;693397;28;1258;-74
2022/11/15 03:22:30;;;;;;;8.35;7.18;;;;;;;14.56;59.73;100268.78;690949;28;807;-75
2022/11/15 03:23:11;;;;;;;10.90;7.90;;;;;;;14.57;59.68;100266.13;694324;28;1336;-75
2022/11/15 03:23:52;;;;;;;10.55;7.13;;;;;;;14.55;59.62;100261.78;690808;28;1154;-75
2022/11/15 03:24:36;;;;;;;9.35;7.00;;;;;;;14.52;59.64;100266.13;693550;28;967;-76
2022/11/15 03:25:22;;;;;;;8.85;7.00;;;;;;;14.60;59.49;100270.53;689612;28;1277;-75
2022/11/15 03:26:01;;;;;;;8.55;6.90;;;;;;;14.53;59.52;100260.00;694618;28;1929;-75
2022/11/15 03:26:43;;;;;;;8.38;6.40;;;;;;;14.56;59.61;100268.78;693745;28;892;-75
2022/11/15 03:27:27;;;;;;;9.43;7.03;;;;;;;14.50;59.66;100260.00;690127;28;1261;-75
2022/11/15 03:28:09;;;;;;;8.98;7.30;;;;;;;14.47;59.51;100254.75;685981;28;1770;-75
2022/11/15 03:28:56;;;;;;;9.25;7.40;;;;;;;14.57;59.74;100278.41;688744;28;1518;-75